sensor_id;sensor_type;location;lat;lon;timestamp;pressure;altitude;pressure_sealevel;temperature;humidity
12247;BME280;6186;52.022;4.692;2023-04-01T00:01:01;99174.31;;;10.71;100.00
12247;BME280;6186;52.022;4.692;2023-04-01T00:03:28;99173.78;;;10.64;100.00
12247;BME280;6186;52.022;4.692;2023-04-01T00:05:55;99179.13;;;10.63;100.00
12247;BME280;6186;52.022;4.692;2023-04-01T00:08:21;99183.63;;;10.61;100.00
12247;BME280;6186;52.022;4.692;2023-04-01T00:10:47;99183.63;;;10.61;100.00
12247;BME280;6186;52.022;4.692;2023-04-01T00:13:12;99186.31;;;10.59;100.00
12247;BME280;6186;52.022;4.692;2023-04-01T00:15:38;99181.97;;;10.58;100.00
12247;BME280;6186;52.022;4.692;2023-04-01T00:18:03;99189.03;;;10.58;100.00
12247;BME280;6186;52.022;4.692;2023-04-01T00:20:30;99171.03;;;10.50;100.00
12247;BME280;6186;52.022;4.692;2023-04-01T00:22:55;99191.72;;;10.56;100.00
12247;BME280;6186;52.022;4.692;2023-04-01T00:25:21;99183.06;;;10.54;100.00
12247;BME280;6186;52.022;4.692;2023-04-01T00:27:46;99198.16;;;10.51;100.00
12247;BME280;6186;52.022;4.692;2023-04-01T00:30:12;99195.59;;;10.49;100.00
12247;BME280;6186;52.022;4.692;2023-04-01T00:32:38;99193.16;;;10.46;100.00
12247;BME280;6186;52.022;4.692;2023-04-01T00:35:04;99202.91;;;10.44;100.00
12247;BME280;6186;52.022;4.692;2023-04-01T00:37:29;99200.25;;;10.44;100.00
12247;BME280;6186;52.022;4.692;2023-04-01T00:39:56;99202.91;;;10.44;100.00
12247;BME280;6186;52.022;4.692;2023-04-01T00:42:22;99202.91;;;10.44;100.00
12247;BME280;6186;52.022;4.692;2023-04-01T00:44:52;99201.19;;;10.43;100.00
12247;BME280;6186;52.022;4.692;2023-04-01T00:47:19;99208.47;;;10.38;100.00
12247;BME280;6186;52.022;4.692;2023-04-01T00:49:48;99211.00;;;10.39;100.00
12247;BME280;6186;52.022;4.692;2023-04-01T00:52:17;99210.31;;;10.36;100.00
12247;BME280;6186;52.022;4.692;2023-04-01T00:54:46;99208.63;;;10.35;100.00
12247;BME280;6186;52.022;4.692;2023-04-01T00:57:16;99211.16;;;10.36;100.00
12247;BME280;6186;52.022;4.692;2023-04-01T00:59:47;99218.13;;;10.37;100.00
12247;BME280;6186;52.022;4.692;2023-04-01T01:02:16;99215.56;;;10.36;100.00
12247;BME280;6186;52.022;4.692;2023-04-01T01:04:41;99226.25;;;10.33;100.00
12247;BME280;6186;52.022;4.692;2023-04-01T01:12:45;99234.16;;;10.33;100.00
12247;BME280;6186;52.022;4.692;2023-04-01T01:15:25;99228.88;;;10.33;100.00
12247;BME280;6186;52.022;4.692;2023-04-01T01:18:09;99230.66;;;10.32;100.00
12247;BME280;6186;52.022;4.692;2023-04-01T01:23:41;99230.81;;;10.29;100.00
12247;BME280;6186;52.022;4.692;2023-04-01T01:31:50;99241.25;;;10.31;100.00
12247;BME280;6186;52.022;4.692;2023-04-01T01:37:05;99241.38;;;10.28;100.00
12247;BME280;6186;52.022;4.692;2023-04-01T01:39:42;99244.09;;;10.26;100.00
12247;BME280;6186;52.022;4.692;2023-04-01T01:42:13;99252.94;;;10.25;100.00
12247;BME280;6186;52.022;4.692;2023-04-01T01:44:43;99245.88;;;10.26;100.00
12247;BME280;6186;52.022;4.692;2023-04-01T01:47:09;99246.72;;;10.26;100.00
12247;BME280;6186;52.022;4.692;2023-04-01T01:49:36;99248.50;;;10.26;100.00
12247;BME280;6186;52.022;4.692;2023-04-01T01:52:03;99252.06;;;10.25;100.00
12247;BME280;6186;52.022;4.692;2023-04-01T01:54:29;99252.28;;;10.20;100.00
12247;BME280;6186;52.022;4.692;2023-04-01T01:57:06;99255.56;;;10.25;100.00
12247;BME280;6186;52.022;4.692;2023-04-01T01:59:35;99255.63;;;10.24;100.00
12247;BME280;6186;52.022;4.692;2023-04-01T02:02:03;99252.97;;;10.24;100.00
12247;BME280;6186;52.022;4.692;2023-04-01T02:04:35;99259.34;;;10.20;100.00
12247;BME280;6186;52.022;4.692;2023-04-01T02:07:05;99262.59;;;10.25;100.00
12247;BME280;6186;52.022;4.692;2023-04-01T02:09:32;99263.59;;;10.22;100.00
12247;BME280;6186;52.022;4.692;2023-04-01T02:12:06;99280.84;;;10.28;100.00
12247;BME280;6186;52.022;4.692;2023-04-01T02:14:45;99280.84;;;10.28;100.00
12247;BME280;6186;52.022;4.692;2023-04-01T02:17:23;99278.28;;;10.26;100.00
12247;BME280;6186;52.022;4.692;2023-04-01T02:19:56;99286.94;;;10.28;100.00
12247;BME280;6186;52.022;4.692;2023-04-01T02:22:28;99289.66;;;10.27;100.00
12247;BME280;6186;52.022;4.692;2023-04-01T02:25:04;99298.47;;;10.26;100.00
12247;BME280;6186;52.022;4.692;2023-04-01T02:27:31;99294.16;;;10.25;100.00
12247;BME280;6186;52.022;4.692;2023-04-01T02:29:56;99291.59;;;10.23;100.00
12247;BME280;6186;52.022;4.692;2023-04-01T02:32:23;99296.69;;;10.26;100.00
12247;BME280;6186;52.022;4.692;2023-04-01T02:34:49;99302.03;;;10.25;100.00
12247;BME280;6186;52.022;4.692;2023-04-01T02:37:15;99308.19;;;10.24;100.00
12247;BME280;6186;52.022;4.692;2023-04-01T02:39:40;99311.69;;;10.24;100.00
12247;BME280;6186;52.022;4.692;2023-04-01T02:42:07;99309.91;;;10.25;100.00
12247;BME280;6186;52.022;4.692;2023-04-01T02:44:33;99302.91;;;10.25;100.00
12247;BME280;6186;52.022;4.692;2023-04-01T02:46:58;99309.84;;;10.26;100.00
12247;BME280;6186;52.022;4.692;2023-04-01T02:49:23;99314.19;;;10.27;100.00
12247;BME280;6186;52.022;4.692;2023-04-01T02:51:49;99318.34;;;10.31;100.00
12247;BME280;6186;52.022;4.692;2023-04-01T02:54:14;99324.47;;;10.32;100.00
12247;BME280;6186;52.022;4.692;2023-04-01T02:56:39;99319.22;;;10.32;100.00
12247;BME280;6186;52.022;4.692;2023-04-01T02:59:05;99320.06;;;10.32;100.00
12247;BME280;6186;52.022;4.692;2023-04-01T03:01:30;99325.25;;;10.34;100.00
12247;BME280;6186;52.022;4.692;2023-04-01T03:03:56;99320.16;;;10.31;100.00
12247;BME280;6186;52.022;4.692;2023-04-01T03:06:21;99332.16;;;10.36;100.00
12247;BME280;6186;52.022;4.692;2023-04-01T03:08:47;99333.91;;;10.36;100.00
12247;BME280;6186;52.022;4.692;2023-04-01T03:11:12;99343.38;;;10.40;100.00
12247;BME280;6186;52.022;4.692;2023-04-01T03:13:38;99337.31;;;10.38;100.00
12247;BME280;6186;52.022;4.692;2023-04-01T03:16:04;99357.28;;;10.42;100.00
12247;BME280;6186;52.022;4.692;2023-04-01T03:18:29;99356.31;;;10.45;100.00
12247;BME280;6186;52.022;4.692;2023-04-01T03:20:55;99358.00;;;10.46;100.00
12247;BME280;6186;52.022;4.692;2023-04-01T03:23:20;99365.81;;;10.47;100.00
12247;BME280;6186;52.022;4.692;2023-04-01T03:25:46;99368.34;;;10.49;100.00
12247;BME280;6186;52.022;4.692;2023-04-01T03:28:12;99371.84;;;10.49;100.00
12247;BME280;6186;52.022;4.692;2023-04-01T03:30:38;99370.00;;;10.51;100.00
12247;BME280;6186;52.022;4.692;2023-04-01T03:33:03;99378.66;;;10.53;100.00
12247;BME280;6186;52.022;4.692;2023-04-01T03:35:29;99381.31;;;10.53;100.00
12247;BME280;6186;52.022;4.692;2023-04-01T03:37:55;99385.69;;;10.53;100.00
12247;BME280;6186;52.022;4.692;2023-04-01T03:40:21;99386.47;;;10.55;100.00
12247;BME280;6186;52.022;4.692;2023-04-01T03:42:47;99391.63;;;10.58;100.00
12247;BME280;6186;52.022;4.692;2023-04-01T03:45:12;99402.06;;;10.59;100.00
12247;BME280;6186;52.022;4.692;2023-04-01T03:47:38;99407.31;;;10.59;100.00
12247;BME280;6186;52.022;4.692;2023-04-01T03:50:05;99409.00;;;10.60;100.00
12247;BME280;6186;52.022;4.692;2023-04-01T03:52:31;99414.22;;;10.62;100.00
12247;BME280;6186;52.022;4.692;2023-04-01T03:54:56;99412.41;;;10.62;100.00
12247;BME280;6186;52.022;4.692;2023-04-01T03:57:21;99414.16;;;10.63;100.00
12247;BME280;6186;52.022;4.692;2023-04-01T03:59:47;99425.44;;;10.65;100.00
12247;BME280;6186;52.022;4.692;2023-04-01T04:02:12;99416.78;;;10.63;100.00
12247;BME280;6186;52.022;4.692;2023-04-01T04:04:37;99428.09;;;10.65;100.00
12247;BME280;6186;52.022;4.692;2023-04-01T04:07:03;99431.63;;;10.64;100.00
12247;BME280;6186;52.022;4.692;2023-04-01T04:09:30;99438.66;;;10.64;100.00
12247;BME280;6186;52.022;4.692;2023-04-01T04:11:56;99448.19;;;10.66;100.00
12247;BME280;6186;52.022;4.692;2023-04-01T04:14:22;99445.56;;;10.66;100.00
12247;BME280;6186;52.022;4.692;2023-04-01T04:16:48;99447.28;;;10.67;100.00
12247;BME280;6186;52.022;4.692;2023-04-01T04:19:13;99461.34;;;10.66;100.00
12247;BME280;6186;52.022;4.692;2023-04-01T04:21:40;99468.34;;;10.67;100.00
12247;BME280;6186;52.022;4.692;2023-04-01T04:24:06;99470.97;;;10.67;100.00
12247;BME280;6186;52.022;4.692;2023-04-01T04:26:31;99471.78;;;10.68;100.00
12247;BME280;6186;52.022;4.692;2023-04-01T04:28:57;99477.91;;;10.68;100.00
12247;BME280;6186;52.022;4.692;2023-04-01T04:31:24;99477.91;;;10.68;100.00
12247;BME280;6186;52.022;4.692;2023-04-01T04:33:50;99482.28;;;10.69;100.00
12247;BME280;6186;52.022;4.692;2023-04-01T04:36:16;99478.78;;;10.69;100.00
12247;BME280;6186;52.022;4.692;2023-04-01T04:38:42;99487.56;;;10.68;100.00
12247;BME280;6186;52.022;4.692;2023-04-01T04:41:11;99497.19;;;10.69;100.00
12247;BME280;6186;52.022;4.692;2023-04-01T04:43:39;99493.88;;;10.65;100.00
12247;BME280;6186;52.022;4.692;2023-04-01T04:46:06;99504.31;;;10.67;100.00
12247;BME280;6186;52.022;4.692;2023-04-01T04:48:31;99508.72;;;10.66;100.00
12247;BME280;6186;52.022;4.692;2023-04-01T04:50:57;99509.50;;;10.68;100.00
12247;BME280;6186;52.022;4.692;2023-04-01T04:53:22;99510.47;;;10.66;100.00
12247;BME280;6186;52.022;4.692;2023-04-01T04:55:49;99514.06;;;10.65;100.00
12247;BME280;6186;52.022;4.692;2023-04-01T04:58:15;99519.38;;;10.63;100.00
12247;BME280;6186;52.022;4.692;2023-04-01T05:00:41;99522.94;;;10.62;100.00
12247;BME280;6186;52.022;4.692;2023-04-01T05:03:07;99531.75;;;10.61;100.00
12247;BME280;6186;52.022;4.692;2023-04-01T05:05:33;99537.03;;;10.61;100.00
12247;BME280;6186;52.022;4.692;2023-04-01T05:07:58;99539.56;;;10.63;100.00
12247;BME280;6186;52.022;4.692;2023-04-01T05:10:23;99538.72;;;10.62;100.00
12247;BME280;6186;52.022;4.692;2023-04-01T05:12:49;99549.25;;;10.62;100.00
12247;BME280;6186;52.022;4.692;2023-04-01T05:15:14;99547.53;;;10.61;100.00
12247;BME280;6186;52.022;4.692;2023-04-01T05:17:40;99555.50;;;10.60;100.00
12247;BME280;6186;52.022;4.692;2023-04-01T05:20:06;99560.97;;;10.55;100.00
12247;BME280;6186;52.022;4.692;2023-04-01T05:22:32;99568.72;;;10.58;100.00
12247;BME280;6186;52.022;4.692;2023-04-01T05:24:57;99575.81;;;10.56;100.00
12247;BME280;6186;52.022;4.692;2023-04-01T05:27:22;99575.03;;;10.54;100.00
12247;BME280;6186;52.022;4.692;2023-04-01T05:29:48;99574.28;;;10.52;100.00
12247;BME280;6186;52.022;4.692;2023-04-01T05:32:13;99582.22;;;10.51;100.00
12247;BME280;6186;52.022;4.692;2023-04-01T05:34:38;99576.13;;;10.50;100.00
12247;BME280;6186;52.022;4.692;2023-04-01T05:37:04;99593.75;;;10.48;100.00
12247;BME280;6186;52.022;4.692;2023-04-01T05:39:29;99591.03;;;10.50;100.00
12247;BME280;6186;52.022;4.692;2023-04-01T05:41:55;99597.19;;;10.50;100.00
12247;BME280;6186;52.022;4.692;2023-04-01T05:44:20;99603.25;;;10.51;100.00
12247;BME280;6186;52.022;4.692;2023-04-01T05:46:45;99598.94;;;10.50;100.00
12247;BME280;6186;52.022;4.692;2023-04-01T05:49:10;99612.88;;;10.52;100.00
12247;BME280;6186;52.022;4.692;2023-04-01T05:51:36;99616.50;;;10.49;100.00
12247;BME280;6186;52.022;4.692;2023-04-01T05:54:01;99618.25;;;10.49;100.00
12247;BME280;6186;52.022;4.692;2023-04-01T05:56:28;99626.13;;;10.50;100.00
12247;BME280;6186;52.022;4.692;2023-04-01T05:58:54;99621.75;;;10.49;100.00
12247;BME280;6186;52.022;4.692;2023-04-01T06:01:19;99624.38;;;10.49;100.00
12247;BME280;6186;52.022;4.692;2023-04-01T06:03:45;99625.38;;;10.47;100.00
12247;BME280;6186;52.022;4.692;2023-04-01T06:06:24;99625.16;;;10.51;100.00
12247;BME280;6186;52.022;4.692;2023-04-01T06:08:51;99640.06;;;10.52;100.00
12247;BME280;6186;52.022;4.692;2023-04-01T06:16:35;99651.34;;;10.54;100.00
12247;BME280;6186;52.022;4.692;2023-04-01T06:27:13;99677.63;;;10.54;100.00
12247;BME280;6186;52.022;4.692;2023-04-01T06:30:30;99676.75;;;10.55;100.00
12247;BME280;6186;52.022;4.692;2023-04-01T06:36:04;99692.59;;;10.54;100.00
12247;BME280;6186;52.022;4.692;2023-04-01T06:46:57;99704.25;;;10.48;100.00
12247;BME280;6186;52.022;4.692;2023-04-01T06:52:22;99711.34;;;10.46;100.00
12247;BME280;6186;52.022;4.692;2023-04-01T06:57:53;99720.22;;;10.43;100.00
12247;BME280;6186;52.022;4.692;2023-04-01T07:00:39;99709.09;;;10.37;100.00
12247;BME280;6186;52.022;4.692;2023-04-01T07:03:26;99720.38;;;10.39;100.00
12247;BME280;6186;52.022;4.692;2023-04-01T07:06:00;99729.88;;;10.43;100.00
12247;BME280;6186;52.022;4.692;2023-04-01T07:08:28;99731.53;;;10.46;100.00
12247;BME280;6186;52.022;4.692;2023-04-01T07:11:06;99729.75;;;10.46;100.00
12247;BME280;6186;52.022;4.692;2023-04-01T07:13:41;99737.66;;;10.46;100.00
12247;BME280;6186;52.022;4.692;2023-04-01T07:18:45;99750.81;;;10.46;100.00
12247;BME280;6186;52.022;4.692;2023-04-01T07:21:52;99758.69;;;10.46;100.00
12247;BME280;6186;52.022;4.692;2023-04-01T07:24:29;99759.53;;;10.47;100.00
12247;BME280;6186;52.022;4.692;2023-04-01T07:26:57;99763.75;;;10.51;100.00
12247;BME280;6186;52.022;4.692;2023-04-01T07:29:25;99762.91;;;10.50;100.00
12247;BME280;6186;52.022;4.692;2023-04-01T07:32:21;99765.41;;;10.53;100.00
12247;BME280;6186;52.022;4.692;2023-04-01T07:40:40;99775.66;;;10.59;100.00
12247;BME280;6186;52.022;4.692;2023-04-01T07:46:00;99783.34;;;10.64;100.00
12247;BME280;6186;52.022;4.692;2023-04-01T07:51:02;99790.19;;;10.68;100.00
12247;BME280;6186;52.022;4.692;2023-04-01T07:56:08;99794.63;;;10.67;100.00
12247;BME280;6186;52.022;4.692;2023-04-01T07:58:41;99803.44;;;10.66;100.00
12247;BME280;6186;52.022;4.692;2023-04-01T08:01:15;99802.56;;;10.66;100.00
12247;BME280;6186;52.022;4.692;2023-04-01T08:09:02;99810.47;;;10.66;100.00
12247;BME280;6186;52.022;4.692;2023-04-01T08:11:41;99816.59;;;10.66;100.00
12247;BME280;6186;52.022;4.692;2023-04-01T08:14:30;99813.94;;;10.66;100.00
12247;BME280;6186;52.022;4.692;2023-04-01T08:17:09;99820.94;;;10.67;100.00
12247;BME280;6186;52.022;4.692;2023-04-01T08:19:58;99832.28;;;10.69;100.00
12247;BME280;6186;52.022;4.692;2023-04-01T08:22:39;99831.19;;;10.73;100.00
12247;BME280;6186;52.022;4.692;2023-04-01T08:25:14;99834.56;;;10.77;100.00
12247;BME280;6186;52.022;4.692;2023-04-01T08:27:52;99844.19;;;10.78;100.00
12247;BME280;6186;52.022;4.692;2023-04-01T08:30:21;99849.50;;;10.76;100.00
12247;BME280;6186;52.022;4.692;2023-04-01T08:32:56;99848.50;;;10.79;100.00
12247;BME280;6186;52.022;4.692;2023-04-01T08:35:30;99853.91;;;10.76;100.00
12247;BME280;6186;52.022;4.692;2023-04-01T08:38:01;99864.25;;;10.80;100.00
12247;BME280;6186;52.022;4.692;2023-04-01T08:40:53;99861.66;;;10.79;100.00
12247;BME280;6186;52.022;4.692;2023-04-01T08:43:43;99854.53;;;10.82;100.00
12247;BME280;6186;52.022;4.692;2023-04-01T08:57:33;99891.97;;;10.89;100.00
12247;BME280;6186;52.022;4.692;2023-04-01T09:02:51;99892.56;;;10.95;100.00
12247;BME280;6186;52.022;4.692;2023-04-01T09:08:31;99902.16;;;10.96;100.00
12247;BME280;6186;52.022;4.692;2023-04-01T09:14:00;99905.59;;;10.98;100.00
12247;BME280;6186;52.022;4.692;2023-04-01T09:20:32;99912.31;;;11.05;100.00
12247;BME280;6186;52.022;4.692;2023-04-01T09:23:10;99914.03;;;11.06;100.00
12247;BME280;6186;52.022;4.692;2023-04-01T09:25:46;99913.91;;;11.09;100.00
12247;BME280;6186;52.022;4.692;2023-04-01T09:28:20;99913.78;;;11.12;100.00
12247;BME280;6186;52.022;4.692;2023-04-01T09:31:16;99914.59;;;11.14;100.00
12247;BME280;6186;52.022;4.692;2023-04-01T09:34:04;99913.09;;;11.07;100.00
12247;BME280;6186;52.022;4.692;2023-04-01T09:37:20;99926.88;;;11.14;100.00
12247;BME280;6186;52.022;4.692;2023-04-01T09:40:12;99925.06;;;11.16;100.00
12247;BME280;6186;52.022;4.692;2023-04-01T09:51:22;99932.88;;;11.17;100.00
12247;BME280;6186;52.022;4.692;2023-04-01T09:57:09;99936.69;;;11.30;100.00
12247;BME280;6186;52.022;4.692;2023-04-01T10:14:07;99965.56;;;11.33;100.00
12247;BME280;6186;52.022;4.692;2023-04-01T10:17:01;99956.00;;;11.31;100.00
12247;BME280;6186;52.022;4.692;2023-04-01T10:25:01;99980.31;;;11.37;100.00
12247;BME280;6186;52.022;4.692;2023-04-01T10:33:15;99985.22;;;11.47;100.00
12247;BME280;6186;52.022;4.692;2023-04-01T10:38:51;99992.97;;;11.50;100.00
12247;BME280;6186;52.022;4.692;2023-04-01T10:42:11;99990.34;;;11.50;100.00
12247;BME280;6186;52.022;4.692;2023-04-01T10:53:43;99993.63;;;11.55;100.00
12247;BME280;6186;52.022;4.692;2023-04-01T10:59:20;100004.31;;;11.52;100.00
12247;BME280;6186;52.022;4.692;2023-04-01T11:27:29;100030.03;;;11.67;100.00
12247;BME280;6186;52.022;4.692;2023-04-01T11:33:05;100034.13;;;11.74;100.00
12247;BME280;6186;52.022;4.692;2023-04-01T11:35:52;100034.91;;;11.76;100.00
12247;BME280;6186;52.022;4.692;2023-04-01T11:44:17;100018.94;;;11.59;100.00
12247;BME280;6186;52.022;4.692;2023-04-01T11:47:27;100053.25;;;11.79;100.00
12247;BME280;6186;52.022;4.692;2023-04-01T11:53:14;100057.44;;;11.83;100.00
12247;BME280;6186;52.022;4.692;2023-04-01T11:58:41;100070.34;;;11.90;100.00
12247;BME280;6186;52.022;4.692;2023-04-01T12:07:18;100076.19;;;11.97;100.00
12247;BME280;6186;52.022;4.692;2023-04-01T12:15:30;100091.69;;;12.04;100.00
12247;BME280;6186;52.022;4.692;2023-04-01T12:28:48;100099.88;;;12.18;100.00
12247;BME280;6186;52.022;4.692;2023-04-01T12:31:25;100105.16;;;12.18;100.00
12247;BME280;6186;52.022;4.692;2023-04-01T12:36:55;100112.31;;;12.15;100.00
12247;BME280;6186;52.022;4.692;2023-04-01T12:39:37;100110.53;;;12.15;100.00
12247;BME280;6186;52.022;4.692;2023-04-01T12:55:54;100137.28;;;12.67;100.00
12247;BME280;6186;52.022;4.692;2023-04-01T13:06:22;100138.47;;;12.41;100.00
12247;BME280;6186;52.022;4.692;2023-04-01T13:17:27;100157.97;;;12.37;100.00
12247;BME280;6186;52.022;4.692;2023-04-01T13:25:55;100156.31;;;12.35;100.00
12247;BME280;6186;52.022;4.692;2023-04-01T13:28:28;100169.34;;;12.39;100.00
12247;BME280;6186;52.022;4.692;2023-04-01T13:36:15;100181.66;;;12.39;100.00
12247;BME280;6186;52.022;4.692;2023-04-01T13:39:10;100183.66;;;12.34;100.00
12247;BME280;6186;52.022;4.692;2023-04-01T13:44:22;100182.00;;;12.31;100.00
12247;BME280;6186;52.022;4.692;2023-04-01T13:49:53;100188.06;;;12.33;100.00
12247;BME280;6186;52.022;4.692;2023-04-01T13:52:25;100189.75;;;12.34;100.00
12247;BME280;6186;52.022;4.692;2023-04-01T13:55:22;100191.50;;;12.35;100.00
12247;BME280;6186;52.022;4.692;2023-04-01T14:03:44;100208.31;;;12.32;100.00
12247;BME280;6186;52.022;4.692;2023-04-01T14:06:29;100211.75;;;12.35;100.00
12247;BME280;6186;52.022;4.692;2023-04-01T14:12:02;100216.84;;;12.39;100.00
12247;BME280;6186;52.022;4.692;2023-04-01T14:22:42;100225.47;;;12.43;100.00
12247;BME280;6186;52.022;4.692;2023-04-01T14:30:59;100239.66;;;12.40;100.00
12247;BME280;6186;52.022;4.692;2023-04-01T14:34:05;100245.06;;;12.37;100.00
12247;BME280;6186;52.022;4.692;2023-04-01T14:47:48;100256.91;;;12.49;100.00
12247;BME280;6186;52.022;4.692;2023-04-01T14:50:21;100255.91;;;12.51;100.00
12247;BME280;6186;52.022;4.692;2023-04-01T14:55:49;100249.16;;;12.44;100.00
12247;BME280;6186;52.022;4.692;2023-04-01T14:58:17;100273.72;;;12.46;100.00
12247;BME280;6186;52.022;4.692;2023-04-01T15:03:53;100290.81;;;12.38;100.00
12247;BME280;6186;52.022;4.692;2023-04-01T15:12:18;100314.00;;;12.29;100.00
12247;BME280;6186;52.022;4.692;2023-04-01T15:17:18;100318.41;;;12.29;100.00
12247;BME280;6186;52.022;4.692;2023-04-01T15:19:59;100321.22;;;12.24;100.00
12247;BME280;6186;52.022;4.692;2023-04-01T15:28:46;100335.28;;;12.03;100.00
12247;BME280;6186;52.022;4.692;2023-04-01T15:31:24;100340.59;;;12.02;100.00
12247;BME280;6186;52.022;4.692;2023-04-01T15:55:57;100382.88;;;11.77;100.00
12247;BME280;6186;52.022;4.692;2023-04-01T15:58:33;100389.88;;;11.78;100.00
12247;BME280;6186;52.022;4.692;2023-04-01T16:18:34;100427.16;;;11.68;100.00
12247;BME280;6186;52.022;4.692;2023-04-01T16:23:39;100437.81;;;11.65;100.00
12247;BME280;6186;52.022;4.692;2023-04-01T16:26:19;100421.53;;;11.54;100.00
12247;BME280;6186;52.022;4.692;2023-04-01T16:28:55;100445.09;;;11.58;100.00
12247;BME280;6186;52.022;4.692;2023-04-01T16:33:56;100453.16;;;11.54;100.00
12247;BME280;6186;52.022;4.692;2023-04-01T16:44:26;100469.75;;;11.31;100.00
12247;BME280;6186;52.022;4.692;2023-04-01T16:46:54;100483.69;;;11.34;100.00
12247;BME280;6186;52.022;4.692;2023-04-01T16:49:32;100483.81;;;11.31;100.00
12247;BME280;6186;52.022;4.692;2023-04-01T16:57:19;100496.63;;;11.16;100.00
12247;BME280;6186;52.022;4.692;2023-04-01T16:59:53;100501.88;;;11.16;100.00
12247;BME280;6186;52.022;4.692;2023-04-01T17:02:26;100503.84;;;11.09;100.00
12247;BME280;6186;52.022;4.692;2023-04-01T17:05:00;100517.84;;;11.11;100.00
12247;BME280;6186;52.022;4.692;2023-04-01T17:12:28;100531.25;;;11.04;100.00
12247;BME280;6186;52.022;4.692;2023-04-01T17:15:21;100535.66;;;11.03;100.00
12247;BME280;6186;52.022;4.692;2023-04-01T17:21:02;100548.97;;;10.99;100.00
12247;BME280;6186;52.022;4.692;2023-04-01T17:39:58;100598.59;;;10.83;100.00
12247;BME280;6186;52.022;4.692;2023-04-01T17:50:22;100639.91;;;10.81;100.00
12247;BME280;6186;52.022;4.692;2023-04-01T17:56:09;100636.63;;;10.73;100.00
12247;BME280;6186;52.022;4.692;2023-04-01T18:01:27;100652.63;;;10.67;100.00
12247;BME280;6186;52.022;4.692;2023-04-01T18:06:52;100659.72;;;10.64;100.00
12247;BME280;6186;52.022;4.692;2023-04-01T18:12:16;100676.44;;;10.63;100.00
12247;BME280;6186;52.022;4.692;2023-04-01T18:15:08;100690.53;;;10.60;100.00
12247;BME280;6186;52.022;4.692;2023-04-01T18:23:02;100699.50;;;10.53;100.00
12247;BME280;6186;52.022;4.692;2023-04-01T18:25:34;100707.41;;;10.53;100.00
12247;BME280;6186;52.022;4.692;2023-04-01T18:30:42;100729.53;;;10.46;100.00
12247;BME280;6186;52.022;4.692;2023-04-01T18:33:19;100738.31;;;10.45;100.00
12247;BME280;6186;52.022;4.692;2023-04-01T18:36:03;100745.44;;;10.41;100.00
12247;BME280;6186;52.022;4.692;2023-04-01T18:38:39;100742.81;;;10.41;100.00
12247;BME280;6186;52.022;4.692;2023-04-01T18:41:23;100756.00;;;10.40;100.00
12247;BME280;6186;52.022;4.692;2023-04-01T18:49:25;100785.78;;;10.42;100.00
12247;BME280;6186;52.022;4.692;2023-04-01T18:51:57;100783.16;;;10.42;100.00
12247;BME280;6186;52.022;4.692;2023-04-01T18:54:31;100790.13;;;10.43;100.00
12247;BME280;6186;52.022;4.692;2023-04-01T18:57:18;100780.50;;;10.42;100.00
12247;BME280;6186;52.022;4.692;2023-04-01T18:59:51;100800.66;;;10.43;100.00
12247;BME280;6186;52.022;4.692;2023-04-01T19:02:34;100805.13;;;10.39;100.00
12247;BME280;6186;52.022;4.692;2023-04-01T19:05:18;100820.09;;;10.37;100.00
12247;BME280;6186;52.022;4.692;2023-04-01T19:07:50;100814.94;;;10.33;100.00
12247;BME280;6186;52.022;4.692;2023-04-01T19:35:52;100869.75;;;10.14;100.00
12247;BME280;6186;52.022;4.692;2023-04-01T19:38:41;100882.97;;;10.11;100.00
12247;BME280;6186;52.022;4.692;2023-04-01T19:47:15;100896.38;;;9.98;100.00
12247;BME280;6186;52.022;4.692;2023-04-01T19:50:09;100889.59;;;9.89;100.00
12247;BME280;6186;52.022;4.692;2023-04-01T19:52:42;100905.28;;;9.92;100.00
12247;BME280;6186;52.022;4.692;2023-04-01T20:00:48;100917.91;;;9.75;100.00
12247;BME280;6186;52.022;4.692;2023-04-01T20:03:46;100938.91;;;9.77;100.00
12247;BME280;6186;52.022;4.692;2023-04-01T20:06:20;100930.19;;;9.75;100.00
12247;BME280;6186;52.022;4.692;2023-04-01T20:08:59;100957.28;;;9.77;100.00
12247;BME280;6186;52.022;4.692;2023-04-01T20:19:42;100967.13;;;9.67;100.00
12247;BME280;6186;52.022;4.692;2023-04-01T20:22:23;100970.66;;;9.66;100.00
12247;BME280;6186;52.022;4.692;2023-04-01T20:24:58;100972.44;;;9.64;100.00
12247;BME280;6186;52.022;4.692;2023-04-01T20:27:44;100985.63;;;9.63;100.00
12247;BME280;6186;52.022;4.692;2023-04-01T20:44:39;101026.84;;;9.61;100.00
12247;BME280;6186;52.022;4.692;2023-04-01T20:50:31;101039.19;;;9.56;100.00
12247;BME280;6186;52.022;4.692;2023-04-01T20:58:37;101051.59;;;9.47;100.00
12247;BME280;6186;52.022;4.692;2023-04-01T21:01:19;101049.06;;;9.41;100.00
12247;BME280;6186;52.022;4.692;2023-04-01T21:09:17;101071.81;;;9.42;100.00
12247;BME280;6186;52.022;4.692;2023-04-01T21:17:17;101071.13;;;9.31;100.00
12247;BME280;6186;52.022;4.692;2023-04-01T21:20:07;101086.84;;;9.34;100.00
12247;BME280;6186;52.022;4.692;2023-04-01T21:23:12;101092.19;;;9.28;100.00
12247;BME280;6186;52.022;4.692;2023-04-01T21:34:31;101125.69;;;9.14;100.00
12247;BME280;6186;52.022;4.692;2023-04-01T22:05:14;101194.13;;;9.02;100.00
12247;BME280;6186;52.022;4.692;2023-04-01T22:07:57;101201.16;;;9.00;100.00
12247;BME280;6186;52.022;4.692;2023-04-01T22:13:16;101212.59;;;8.96;100.00
12247;BME280;6186;52.022;4.692;2023-04-01T22:16:01;101218.75;;;8.92;100.00
12247;BME280;6186;52.022;4.692;2023-04-01T22:18:38;101221.44;;;8.89;100.00
12247;BME280;6186;52.022;4.692;2023-04-01T22:27:39;101232.84;;;8.85;100.00
12247;BME280;6186;52.022;4.692;2023-04-01T22:32:47;101243.41;;;8.81;100.00
12247;BME280;6186;52.022;4.692;2023-04-01T22:35:27;101234.66;;;8.80;100.00
12247;BME280;6186;52.022;4.692;2023-04-01T22:40:36;101250.44;;;8.77;100.00
12247;BME280;6186;52.022;4.692;2023-04-01T22:43:10;101245.25;;;8.74;100.00
12247;BME280;6186;52.022;4.692;2023-04-01T22:49:05;101267.06;;;8.78;100.00